sensor_id;sensor_type;location;lat;lon;timestamp;temperature;humidity
24560;DHT22;12727;49.934;8.656;2024-03-08T00:00:15;5.10;95.40
24560;DHT22;12727;49.934;8.656;2024-03-08T00:02:43;5.00;95.40
24560;DHT22;12727;49.934;8.656;2024-03-08T00:05:09;5.00;95.40
24560;DHT22;12727;49.934;8.656;2024-03-08T00:07:36;4.90;95.50
24560;DHT22;12727;49.934;8.656;2024-03-08T00:10:03;5.00;95.30
24560;DHT22;12727;49.934;8.656;2024-03-08T00:12:28;4.90;95.30
24560;DHT22;12727;49.934;8.656;2024-03-08T00:14:54;4.90;95.40
24560;DHT22;12727;49.934;8.656;2024-03-08T00:17:21;4.90;95.30
24560;DHT22;12727;49.934;8.656;2024-03-08T00:19:50;4.90;95.80
24560;DHT22;12727;49.934;8.656;2024-03-08T00:22:17;4.80;95.40
24560;DHT22;12727;49.934;8.656;2024-03-08T00:24:42;4.80;95.40
24560;DHT22;12727;49.934;8.656;2024-03-08T00:27:09;4.80;95.40
24560;DHT22;12727;49.934;8.656;2024-03-08T00:29:34;4.80;95.40
24560;DHT22;12727;49.934;8.656;2024-03-08T00:32:00;4.70;95.50
24560;DHT22;12727;49.934;8.656;2024-03-08T00:34:26;4.60;95.60
24560;DHT22;12727;49.934;8.656;2024-03-08T00:36:52;4.60;95.60
24560;DHT22;12727;49.934;8.656;2024-03-08T00:39:18;4.60;95.80
24560;DHT22;12727;49.934;8.656;2024-03-08T00:41:46;4.60;95.70
24560;DHT22;12727;49.934;8.656;2024-03-08T00:44:11;4.60;95.60
24560;DHT22;12727;49.934;8.656;2024-03-08T00:46:37;4.60;95.60
24560;DHT22;12727;49.934;8.656;2024-03-08T00:49:03;4.50;95.60
24560;DHT22;12727;49.934;8.656;2024-03-08T00:51:29;4.60;95.60
24560;DHT22;12727;49.934;8.656;2024-03-08T00:53:55;4.60;95.50
24560;DHT22;12727;49.934;8.656;2024-03-08T00:56:20;4.50;95.60
24560;DHT22;12727;49.934;8.656;2024-03-08T00:58:46;4.50;95.60
24560;DHT22;12727;49.934;8.656;2024-03-08T01:01:13;4.40;95.70
24560;DHT22;12727;49.934;8.656;2024-03-08T01:03:43;4.40;95.70
24560;DHT22;12727;49.934;8.656;2024-03-08T01:06:08;4.40;95.80
24560;DHT22;12727;49.934;8.656;2024-03-08T01:08:34;4.30;95.80
24560;DHT22;12727;49.934;8.656;2024-03-08T01:10:59;4.30;95.90
24560;DHT22;12727;49.934;8.656;2024-03-08T01:13:25;4.20;96.00
24560;DHT22;12727;49.934;8.656;2024-03-08T01:15:51;4.20;96.00
24560;DHT22;12727;49.934;8.656;2024-03-08T01:18:18;4.20;95.90
24560;DHT22;12727;49.934;8.656;2024-03-08T01:20:45;4.20;95.80
24560;DHT22;12727;49.934;8.656;2024-03-08T01:23:10;4.20;95.80
24560;DHT22;12727;49.934;8.656;2024-03-08T01:25:36;4.20;95.90
24560;DHT22;12727;49.934;8.656;2024-03-08T01:28:01;4.20;95.80
24560;DHT22;12727;49.934;8.656;2024-03-08T01:30:27;4.20;95.70
24560;DHT22;12727;49.934;8.656;2024-03-08T01:32:53;4.20;95.80
24560;DHT22;12727;49.934;8.656;2024-03-08T01:35:19;4.10;95.80
24560;DHT22;12727;49.934;8.656;2024-03-08T01:37:45;4.10;95.90
24560;DHT22;12727;49.934;8.656;2024-03-08T01:40:10;4.00;96.00
24560;DHT22;12727;49.934;8.656;2024-03-08T01:42:36;4.10;96.00
24560;DHT22;12727;49.934;8.656;2024-03-08T01:45:05;4.10;95.90
24560;DHT22;12727;49.934;8.656;2024-03-08T01:47:32;4.00;95.90
24560;DHT22;12727;49.934;8.656;2024-03-08T01:49:58;4.00;96.00
24560;DHT22;12727;49.934;8.656;2024-03-08T01:52:26;4.00;96.00
24560;DHT22;12727;49.934;8.656;2024-03-08T01:54:53;4.00;96.10
24560;DHT22;12727;49.934;8.656;2024-03-08T01:57:19;4.00;96.50
24560;DHT22;12727;49.934;8.656;2024-03-08T01:59:45;3.90;96.20
24560;DHT22;12727;49.934;8.656;2024-03-08T02:02:11;3.90;96.40
24560;DHT22;12727;49.934;8.656;2024-03-08T02:04:39;3.90;96.40
24560;DHT22;12727;49.934;8.656;2024-03-08T02:07:05;3.90;96.50
24560;DHT22;12727;49.934;8.656;2024-03-08T02:09:30;3.80;96.50
24560;DHT22;12727;49.934;8.656;2024-03-08T02:11:56;3.80;96.50
24560;DHT22;12727;49.934;8.656;2024-03-08T02:14:22;3.80;96.70
24560;DHT22;12727;49.934;8.656;2024-03-08T02:16:49;3.80;96.70
24560;DHT22;12727;49.934;8.656;2024-03-08T02:19:14;3.80;96.80
24560;DHT22;12727;49.934;8.656;2024-03-08T02:21:40;3.80;96.70
24560;DHT22;12727;49.934;8.656;2024-03-08T02:24:06;3.70;96.80
24560;DHT22;12727;49.934;8.656;2024-03-08T02:26:31;3.80;96.90
24560;DHT22;12727;49.934;8.656;2024-03-08T02:28:57;3.80;97.30
24560;DHT22;12727;49.934;8.656;2024-03-08T02:31:22;3.80;96.90
24560;DHT22;12727;49.934;8.656;2024-03-08T02:33:48;3.70;97.10
24560;DHT22;12727;49.934;8.656;2024-03-08T02:36:13;3.60;97.20
24560;DHT22;12727;49.934;8.656;2024-03-08T02:38:39;3.60;97.30
24560;DHT22;12727;49.934;8.656;2024-03-08T02:41:07;3.70;97.20
24560;DHT22;12727;49.934;8.656;2024-03-08T02:43:34;3.70;97.30
24560;DHT22;12727;49.934;8.656;2024-03-08T02:46:00;3.70;97.40
24560;DHT22;12727;49.934;8.656;2024-03-08T02:48:25;3.60;97.50
24560;DHT22;12727;49.934;8.656;2024-03-08T02:50:51;3.60;97.50
24560;DHT22;12727;49.934;8.656;2024-03-08T02:53:17;3.50;97.50
24560;DHT22;12727;49.934;8.656;2024-03-08T02:55:44;3.50;97.70
24560;DHT22;12727;49.934;8.656;2024-03-08T02:58:10;3.40;97.80
24560;DHT22;12727;49.934;8.656;2024-03-08T03:00:39;3.40;97.90
24560;DHT22;12727;49.934;8.656;2024-03-08T03:03:06;3.40;98.10
24560;DHT22;12727;49.934;8.656;2024-03-08T03:05:32;3.30;98.10
24560;DHT22;12727;49.934;8.656;2024-03-08T03:07:57;3.30;98.20
24560;DHT22;12727;49.934;8.656;2024-03-08T03:10:24;3.20;98.30
24560;DHT22;12727;49.934;8.656;2024-03-08T03:12:49;3.20;98.40
24560;DHT22;12727;49.934;8.656;2024-03-08T03:15:15;3.10;98.40
24560;DHT22;12727;49.934;8.656;2024-03-08T03:17:48;3.00;98.60
24560;DHT22;12727;49.934;8.656;2024-03-08T03:20:16;3.00;98.80
24560;DHT22;12727;49.934;8.656;2024-03-08T03:22:50;2.90;98.90
24560;DHT22;12727;49.934;8.656;2024-03-08T03:25:20;2.90;99.20
24560;DHT22;12727;49.934;8.656;2024-03-08T03:27:51;2.80;99.30
24560;DHT22;12727;49.934;8.656;2024-03-08T03:30:16;2.80;99.50
24560;DHT22;12727;49.934;8.656;2024-03-08T03:32:47;2.70;99.80
24560;DHT22;12727;49.934;8.656;2024-03-08T03:35:14;2.60;99.80
24560;DHT22;12727;49.934;8.656;2024-03-08T03:37:40;2.60;99.90
24560;DHT22;12727;49.934;8.656;2024-03-08T03:40:08;2.50;99.90
24560;DHT22;12727;49.934;8.656;2024-03-08T03:42:34;2.50;99.90
24560;DHT22;12727;49.934;8.656;2024-03-08T03:44:59;2.40;99.90
24560;DHT22;12727;49.934;8.656;2024-03-08T03:47:25;2.30;99.90
24560;DHT22;12727;49.934;8.656;2024-03-08T03:49:52;2.30;99.90
24560;DHT22;12727;49.934;8.656;2024-03-08T03:52:19;2.20;99.90
24560;DHT22;12727;49.934;8.656;2024-03-08T03:54:45;2.20;99.90
24560;DHT22;12727;49.934;8.656;2024-03-08T03:57:10;2.10;99.90
24560;DHT22;12727;49.934;8.656;2024-03-08T03:59:37;2.10;99.90
24560;DHT22;12727;49.934;8.656;2024-03-08T04:02:03;2.10;99.90
24560;DHT22;12727;49.934;8.656;2024-03-08T04:04:29;2.00;99.90
24560;DHT22;12727;49.934;8.656;2024-03-08T04:06:54;2.00;99.90
24560;DHT22;12727;49.934;8.656;2024-03-08T04:09:20;2.00;99.90
24560;DHT22;12727;49.934;8.656;2024-03-08T04:11:48;2.00;99.90
24560;DHT22;12727;49.934;8.656;2024-03-08T04:14:13;2.00;99.90
24560;DHT22;12727;49.934;8.656;2024-03-08T04:16:39;1.90;99.90
24560;DHT22;12727;49.934;8.656;2024-03-08T04:19:04;1.90;99.90
24560;DHT22;12727;49.934;8.656;2024-03-08T04:21:30;1.80;99.90
24560;DHT22;12727;49.934;8.656;2024-03-08T04:23:56;1.80;99.90
24560;DHT22;12727;49.934;8.656;2024-03-08T04:26:22;1.80;99.90
24560;DHT22;12727;49.934;8.656;2024-03-08T04:28:47;1.70;99.90
24560;DHT22;12727;49.934;8.656;2024-03-08T04:31:13;1.70;99.90
24560;DHT22;12727;49.934;8.656;2024-03-08T04:33:38;1.60;99.90
24560;DHT22;12727;49.934;8.656;2024-03-08T04:36:04;1.60;99.90
24560;DHT22;12727;49.934;8.656;2024-03-08T04:38:30;1.50;99.90
24560;DHT22;12727;49.934;8.656;2024-03-08T04:40:57;1.50;99.90
24560;DHT22;12727;49.934;8.656;2024-03-08T04:43:23;1.50;99.90
24560;DHT22;12727;49.934;8.656;2024-03-08T04:45:51;1.40;99.90
24560;DHT22;12727;49.934;8.656;2024-03-08T04:48:16;1.40;99.90
24560;DHT22;12727;49.934;8.656;2024-03-08T04:50:42;1.40;99.90
24560;DHT22;12727;49.934;8.656;2024-03-08T04:53:07;1.30;99.90
24560;DHT22;12727;49.934;8.656;2024-03-08T04:55:34;1.20;99.90
24560;DHT22;12727;49.934;8.656;2024-03-08T04:57:59;1.20;99.90
24560;DHT22;12727;49.934;8.656;2024-03-08T05:00:25;1.10;99.90
24560;DHT22;12727;49.934;8.656;2024-03-08T05:02:50;1.10;99.90
24560;DHT22;12727;49.934;8.656;2024-03-08T05:05:18;1.10;99.90
24560;DHT22;12727;49.934;8.656;2024-03-08T05:07:44;1.10;99.90
24560;DHT22;12727;49.934;8.656;2024-03-08T05:10:11;1.10;99.90
24560;DHT22;12727;49.934;8.656;2024-03-08T05:12:36;1.10;99.90
24560;DHT22;12727;49.934;8.656;2024-03-08T05:15:04;1.10;99.90
24560;DHT22;12727;49.934;8.656;2024-03-08T05:17:30;1.10;99.90
24560;DHT22;12727;49.934;8.656;2024-03-08T05:19:56;1.00;99.90
24560;DHT22;12727;49.934;8.656;2024-03-08T05:22:22;0.90;99.90
24560;DHT22;12727;49.934;8.656;2024-03-08T05:24:47;0.90;99.90
24560;DHT22;12727;49.934;8.656;2024-03-08T05:27:13;0.90;99.90
24560;DHT22;12727;49.934;8.656;2024-03-08T05:29:38;0.90;99.90
24560;DHT22;12727;49.934;8.656;2024-03-08T05:32:04;0.90;99.90
24560;DHT22;12727;49.934;8.656;2024-03-08T05:34:30;0.80;99.90
24560;DHT22;12727;49.934;8.656;2024-03-08T05:36:55;0.80;99.90
24560;DHT22;12727;49.934;8.656;2024-03-08T05:39:21;0.80;99.90
24560;DHT22;12727;49.934;8.656;2024-03-08T05:41:47;0.80;99.90
24560;DHT22;12727;49.934;8.656;2024-03-08T05:44:13;0.80;99.90
24560;DHT22;12727;49.934;8.656;2024-03-08T05:46:39;0.80;99.90
24560;DHT22;12727;49.934;8.656;2024-03-08T05:49:06;0.80;99.90
24560;DHT22;12727;49.934;8.656;2024-03-08T05:51:32;0.80;99.90
24560;DHT22;12727;49.934;8.656;2024-03-08T05:54:00;0.80;99.90
24560;DHT22;12727;49.934;8.656;2024-03-08T05:56:26;0.70;99.90
24560;DHT22;12727;49.934;8.656;2024-03-08T05:58:52;0.70;99.90
24560;DHT22;12727;49.934;8.656;2024-03-08T06:01:17;0.70;99.90
24560;DHT22;12727;49.934;8.656;2024-03-08T06:03:43;0.70;99.90
24560;DHT22;12727;49.934;8.656;2024-03-08T06:06:14;0.70;99.90
24560;DHT22;12727;49.934;8.656;2024-03-08T06:08:40;0.70;99.90
24560;DHT22;12727;49.934;8.656;2024-03-08T06:11:05;0.70;99.90
24560;DHT22;12727;49.934;8.656;2024-03-08T06:13:34;0.80;99.90
24560;DHT22;12727;49.934;8.656;2024-03-08T06:16:03;0.90;99.90
24560;DHT22;12727;49.934;8.656;2024-03-08T06:18:30;0.90;99.90
24560;DHT22;12727;49.934;8.656;2024-03-08T06:20:56;0.90;99.90
24560;DHT22;12727;49.934;8.656;2024-03-08T06:23:22;1.00;99.90
24560;DHT22;12727;49.934;8.656;2024-03-08T06:25:48;1.00;99.90
24560;DHT22;12727;49.934;8.656;2024-03-08T06:28:13;1.10;99.90
24560;DHT22;12727;49.934;8.656;2024-03-08T06:30:39;1.10;99.90
24560;DHT22;12727;49.934;8.656;2024-03-08T06:33:05;1.10;99.90
24560;DHT22;12727;49.934;8.656;2024-03-08T06:35:30;1.20;99.90
24560;DHT22;12727;49.934;8.656;2024-03-08T06:37:58;1.30;99.90
24560;DHT22;12727;49.934;8.656;2024-03-08T06:40:23;1.50;99.90
24560;DHT22;12727;49.934;8.656;2024-03-08T06:42:49;1.70;99.90
24560;DHT22;12727;49.934;8.656;2024-03-08T06:45:14;1.80;99.90
24560;DHT22;12727;49.934;8.656;2024-03-08T06:47:44;1.90;99.90
24560;DHT22;12727;49.934;8.656;2024-03-08T06:50:11;2.10;99.90
24560;DHT22;12727;49.934;8.656;2024-03-08T06:52:37;2.30;99.90
24560;DHT22;12727;49.934;8.656;2024-03-08T06:55:03;2.30;99.90
24560;DHT22;12727;49.934;8.656;2024-03-08T06:57:31;2.50;99.90
24560;DHT22;12727;49.934;8.656;2024-03-08T06:59:56;2.80;99.90
24560;DHT22;12727;49.934;8.656;2024-03-08T07:02:23;3.00;99.90
24560;DHT22;12727;49.934;8.656;2024-03-08T07:04:50;3.20;99.90
24560;DHT22;12727;49.934;8.656;2024-03-08T07:07:16;3.40;99.90
24560;DHT22;12727;49.934;8.656;2024-03-08T07:09:45;3.50;99.90
24560;DHT22;12727;49.934;8.656;2024-03-08T07:12:10;3.70;99.90
24560;DHT22;12727;49.934;8.656;2024-03-08T07:14:38;3.90;99.90
24560;DHT22;12727;49.934;8.656;2024-03-08T07:17:07;4.10;99.90
24560;DHT22;12727;49.934;8.656;2024-03-08T07:19:37;4.30;99.90
24560;DHT22;12727;49.934;8.656;2024-03-08T07:22:04;4.50;99.90
24560;DHT22;12727;49.934;8.656;2024-03-08T07:24:29;4.60;99.90
24560;DHT22;12727;49.934;8.656;2024-03-08T07:27:17;4.80;99.90
24560;DHT22;12727;49.934;8.656;2024-03-08T07:29:43;5.10;99.90
24560;DHT22;12727;49.934;8.656;2024-03-08T07:32:08;5.40;99.90
24560;DHT22;12727;49.934;8.656;2024-03-08T07:34:49;5.60;99.90
24560;DHT22;12727;49.934;8.656;2024-03-08T07:37:16;5.50;99.90
24560;DHT22;12727;49.934;8.656;2024-03-08T07:39:42;5.60;99.90
24560;DHT22;12727;49.934;8.656;2024-03-08T07:42:08;5.50;99.90
24560;DHT22;12727;49.934;8.656;2024-03-08T07:44:35;5.80;99.90
24560;DHT22;12727;49.934;8.656;2024-03-08T07:47:00;6.10;99.90
24560;DHT22;12727;49.934;8.656;2024-03-08T07:49:26;6.30;99.90
24560;DHT22;12727;49.934;8.656;2024-03-08T07:51:52;6.50;99.90
24560;DHT22;12727;49.934;8.656;2024-03-08T07:54:17;6.90;99.60
24560;DHT22;12727;49.934;8.656;2024-03-08T07:56:43;7.10;98.70
24560;DHT22;12727;49.934;8.656;2024-03-08T07:59:08;7.60;98.50
24560;DHT22;12727;49.934;8.656;2024-03-08T08:01:34;7.50;96.80
24560;DHT22;12727;49.934;8.656;2024-03-08T08:04:00;7.20;97.20
24560;DHT22;12727;49.934;8.656;2024-03-08T08:06:28;7.30;96.90
24560;DHT22;12727;49.934;8.656;2024-03-08T08:08:57;7.20;97.30
24560;DHT22;12727;49.934;8.656;2024-03-08T08:11:22;7.60;97.10
24560;DHT22;12727;49.934;8.656;2024-03-08T08:13:48;7.80;96.00
24560;DHT22;12727;49.934;8.656;2024-03-08T08:16:13;7.80;95.90
24560;DHT22;12727;49.934;8.656;2024-03-08T08:18:39;7.70;95.50
24560;DHT22;12727;49.934;8.656;2024-03-08T08:21:06;7.70;95.90
24560;DHT22;12727;49.934;8.656;2024-03-08T08:23:32;7.70;95.20
24560;DHT22;12727;49.934;8.656;2024-03-08T08:25:58;8.00;95.50
24560;DHT22;12727;49.934;8.656;2024-03-08T08:28:23;7.90;94.90
24560;DHT22;12727;49.934;8.656;2024-03-08T08:30:50;7.90;94.20
24560;DHT22;12727;49.934;8.656;2024-03-08T08:33:16;8.10;94.60
24560;DHT22;12727;49.934;8.656;2024-03-08T08:35:41;8.30;94.50
24560;DHT22;12727;49.934;8.656;2024-03-08T08:38:08;8.90;94.20
24560;DHT22;12727;49.934;8.656;2024-03-08T08:40:34;9.00;92.30
24560;DHT22;12727;49.934;8.656;2024-03-08T08:43:01;8.40;93.00
24560;DHT22;12727;49.934;8.656;2024-03-08T08:45:32;8.40;93.50
24560;DHT22;12727;49.934;8.656;2024-03-08T08:47:58;8.70;93.50
24560;DHT22;12727;49.934;8.656;2024-03-08T08:50:26;8.70;92.30
24560;DHT22;12727;49.934;8.656;2024-03-08T08:52:54;8.70;92.20
24560;DHT22;12727;49.934;8.656;2024-03-08T08:55:19;9.20;93.00
24560;DHT22;12727;49.934;8.656;2024-03-08T08:57:51;9.40;91.80
24560;DHT22;12727;49.934;8.656;2024-03-08T09:00:18;9.70;91.60
24560;DHT22;12727;49.934;8.656;2024-03-08T09:02:45;9.80;91.20
24560;DHT22;12727;49.934;8.656;2024-03-08T09:05:11;9.90;90.90
24560;DHT22;12727;49.934;8.656;2024-03-08T09:07:37;10.30;90.70
24560;DHT22;12727;49.934;8.656;2024-03-08T09:10:03;10.80;89.90
24560;DHT22;12727;49.934;8.656;2024-03-08T09:12:29;11.10;89.30
24560;DHT22;12727;49.934;8.656;2024-03-08T09:14:54;11.50;87.50
24560;DHT22;12727;49.934;8.656;2024-03-08T09:17:20;11.40;82.10
24560;DHT22;12727;49.934;8.656;2024-03-08T09:19:49;10.90;85.10
24560;DHT22;12727;49.934;8.656;2024-03-08T09:22:15;10.40;82.60
24560;DHT22;12727;49.934;8.656;2024-03-08T09:24:41;10.10;84.60
24560;DHT22;12727;49.934;8.656;2024-03-08T09:27:08;10.00;85.40
24560;DHT22;12727;49.934;8.656;2024-03-08T09:29:35;10.30;83.90
24560;DHT22;12727;49.934;8.656;2024-03-08T09:32:00;10.40;84.60
24560;DHT22;12727;49.934;8.656;2024-03-08T09:34:26;10.40;83.00
24560;DHT22;12727;49.934;8.656;2024-03-08T09:36:52;10.40;82.20
24560;DHT22;12727;49.934;8.656;2024-03-08T09:39:18;10.80;82.60
24560;DHT22;12727;49.934;8.656;2024-03-08T09:41:46;10.80;81.10
24560;DHT22;12727;49.934;8.656;2024-03-08T09:44:15;10.70;80.80
24560;DHT22;12727;49.934;8.656;2024-03-08T09:46:41;10.60;79.80
24560;DHT22;12727;49.934;8.656;2024-03-08T09:49:07;10.90;80.20
24560;DHT22;12727;49.934;8.656;2024-03-08T09:51:34;11.20;79.90
24560;DHT22;12727;49.934;8.656;2024-03-08T09:54:03;11.50;78.00
24560;DHT22;12727;49.934;8.656;2024-03-08T09:56:32;11.30;77.00
24560;DHT22;12727;49.934;8.656;2024-03-08T09:59:01;11.00;78.30
24560;DHT22;12727;49.934;8.656;2024-03-08T10:01:49;10.80;77.80
24560;DHT22;12727;49.934;8.656;2024-03-08T10:04:16;10.80;79.30
24560;DHT22;12727;49.934;8.656;2024-03-08T10:06:42;10.90;79.80
24560;DHT22;12727;49.934;8.656;2024-03-08T10:09:09;11.70;77.80
24560;DHT22;12727;49.934;8.656;2024-03-08T10:11:35;11.90;76.00
24560;DHT22;12727;49.934;8.656;2024-03-08T10:14:01;11.70;75.50
24560;DHT22;12727;49.934;8.656;2024-03-08T10:16:27;12.10;75.80
24560;DHT22;12727;49.934;8.656;2024-03-08T10:18:55;12.10;74.30
24560;DHT22;12727;49.934;8.656;2024-03-08T10:21:21;12.20;75.00
24560;DHT22;12727;49.934;8.656;2024-03-08T10:23:46;11.90;74.60
24560;DHT22;12727;49.934;8.656;2024-03-08T10:26:16;12.40;74.50
24560;DHT22;12727;49.934;8.656;2024-03-08T10:28:48;12.80;74.30
24560;DHT22;12727;49.934;8.656;2024-03-08T10:31:17;12.90;72.40
24560;DHT22;12727;49.934;8.656;2024-03-08T10:33:43;13.30;70.70
24560;DHT22;12727;49.934;8.656;2024-03-08T10:36:10;13.00;68.80
24560;DHT22;12727;49.934;8.656;2024-03-08T10:38:38;12.90;70.90
24560;DHT22;12727;49.934;8.656;2024-03-08T10:41:07;12.50;71.80
24560;DHT22;12727;49.934;8.656;2024-03-08T10:44:10;12.50;71.60
24560;DHT22;12727;49.934;8.656;2024-03-08T10:50:05;12.50;71.10
24560;DHT22;12727;49.934;8.656;2024-03-08T10:52:32;12.40;71.40
24560;DHT22;12727;49.934;8.656;2024-03-08T10:55:01;12.50;70.90
24560;DHT22;12727;49.934;8.656;2024-03-08T10:57:27;12.60;71.50
24560;DHT22;12727;49.934;8.656;2024-03-08T10:59:54;12.70;70.80
24560;DHT22;12727;49.934;8.656;2024-03-08T11:02:20;12.70;70.10
24560;DHT22;12727;49.934;8.656;2024-03-08T11:04:50;13.00;71.00
24560;DHT22;12727;49.934;8.656;2024-03-08T11:07:17;12.70;69.70
24560;DHT22;12727;49.934;8.656;2024-03-08T11:09:44;12.30;70.70
24560;DHT22;12727;49.934;8.656;2024-03-08T11:12:27;12.60;71.30
24560;DHT22;12727;49.934;8.656;2024-03-08T11:15:02;12.60;70.00
24560;DHT22;12727;49.934;8.656;2024-03-08T11:19:59;12.00;71.10
24560;DHT22;12727;49.934;8.656;2024-03-08T11:22:32;12.10;72.10
24560;DHT22;12727;49.934;8.656;2024-03-08T11:25:09;12.20;70.80
24560;DHT22;12727;49.934;8.656;2024-03-08T11:27:37;11.70;72.20
24560;DHT22;12727;49.934;8.656;2024-03-08T11:30:04;10.60;75.90
24560;DHT22;12727;49.934;8.656;2024-03-08T11:32:37;10.00;78.00
24560;DHT22;12727;49.934;8.656;2024-03-08T11:35:07;9.70;79.70
24560;DHT22;12727;49.934;8.656;2024-03-08T11:37:43;9.50;81.00
24560;DHT22;12727;49.934;8.656;2024-03-08T11:40:12;9.50;80.90
24560;DHT22;12727;49.934;8.656;2024-03-08T11:42:44;9.60;81.50
24560;DHT22;12727;49.934;8.656;2024-03-08T11:45:09;9.70;81.40
24560;DHT22;12727;49.934;8.656;2024-03-08T11:47:37;9.40;81.10
24560;DHT22;12727;49.934;8.656;2024-03-08T11:50:06;9.10;82.10
24560;DHT22;12727;49.934;8.656;2024-03-08T11:52:36;9.10;83.00
24560;DHT22;12727;49.934;8.656;2024-03-08T11:55:02;9.20;82.70
24560;DHT22;12727;49.934;8.656;2024-03-08T11:57:28;9.30;82.90
24560;DHT22;12727;49.934;8.656;2024-03-08T11:59:55;9.30;83.80
24560;DHT22;12727;49.934;8.656;2024-03-08T12:02:31;9.40;82.80
24560;DHT22;12727;49.934;8.656;2024-03-08T12:05:00;9.60;82.80
24560;DHT22;12727;49.934;8.656;2024-03-08T12:07:29;9.50;82.00
24560;DHT22;12727;49.934;8.656;2024-03-08T12:12:47;9.80;82.30
24560;DHT22;12727;49.934;8.656;2024-03-08T12:15:14;9.90;81.30
24560;DHT22;12727;49.934;8.656;2024-03-08T12:17:41;9.80;81.20
24560;DHT22;12727;49.934;8.656;2024-03-08T12:22:47;9.90;81.80
24560;DHT22;12727;49.934;8.656;2024-03-08T12:25:14;10.00;81.10
24560;DHT22;12727;49.934;8.656;2024-03-08T12:27:41;10.00;80.40
24560;DHT22;12727;49.934;8.656;2024-03-08T12:30:19;9.90;79.90
24560;DHT22;12727;49.934;8.656;2024-03-08T12:32:58;9.80;80.20
24560;DHT22;12727;49.934;8.656;2024-03-08T12:35:28;9.80;80.30
24560;DHT22;12727;49.934;8.656;2024-03-08T12:37:56;9.70;80.60
24560;DHT22;12727;49.934;8.656;2024-03-08T12:40:29;9.80;80.50
24560;DHT22;12727;49.934;8.656;2024-03-08T12:42:57;9.80;80.50
24560;DHT22;12727;49.934;8.656;2024-03-08T12:45:24;9.90;80.80
24560;DHT22;12727;49.934;8.656;2024-03-08T12:47:51;10.00;80.80
24560;DHT22;12727;49.934;8.656;2024-03-08T12:50:17;10.00;80.20
24560;DHT22;12727;49.934;8.656;2024-03-08T12:52:42;9.90;79.90
24560;DHT22;12727;49.934;8.656;2024-03-08T12:55:08;9.80;80.20
24560;DHT22;12727;49.934;8.656;2024-03-08T12:57:35;9.80;80.50
24560;DHT22;12727;49.934;8.656;2024-03-08T13:00:02;9.80;81.50
24560;DHT22;12727;49.934;8.656;2024-03-08T13:02:29;10.00;81.40
24560;DHT22;12727;49.934;8.656;2024-03-08T13:04:56;10.00;81.00
24560;DHT22;12727;49.934;8.656;2024-03-08T13:07:25;10.10;81.20
24560;DHT22;12727;49.934;8.656;2024-03-08T13:09:52;10.10;81.30
24560;DHT22;12727;49.934;8.656;2024-03-08T13:12:19;10.10;81.10
24560;DHT22;12727;49.934;8.656;2024-03-08T13:14:45;10.10;80.40
24560;DHT22;12727;49.934;8.656;2024-03-08T13:17:12;10.10;80.40
24560;DHT22;12727;49.934;8.656;2024-03-08T13:19:38;10.10;79.90
24560;DHT22;12727;49.934;8.656;2024-03-08T13:22:04;10.10;80.70
24560;DHT22;12727;49.934;8.656;2024-03-08T13:24:30;10.20;80.40
24560;DHT22;12727;49.934;8.656;2024-03-08T13:26:56;10.30;80.80
24560;DHT22;12727;49.934;8.656;2024-03-08T13:29:21;10.20;80.50
24560;DHT22;12727;49.934;8.656;2024-03-08T13:31:48;10.50;81.90
24560;DHT22;12727;49.934;8.656;2024-03-08T13:34:20;10.70;80.50
24560;DHT22;12727;49.934;8.656;2024-03-08T13:36:53;10.80;79.60
24560;DHT22;12727;49.934;8.656;2024-03-08T13:39:25;10.50;79.70
24560;DHT22;12727;49.934;8.656;2024-03-08T13:41:51;10.40;80.10
24560;DHT22;12727;49.934;8.656;2024-03-08T13:44:16;10.50;80.60
24560;DHT22;12727;49.934;8.656;2024-03-08T13:46:42;10.50;80.50
24560;DHT22;12727;49.934;8.656;2024-03-08T13:49:08;10.50;80.00
24560;DHT22;12727;49.934;8.656;2024-03-08T13:51:35;10.40;80.00
24560;DHT22;12727;49.934;8.656;2024-03-08T13:54:01;10.50;80.30
24560;DHT22;12727;49.934;8.656;2024-03-08T13:56:27;10.60;79.70
24560;DHT22;12727;49.934;8.656;2024-03-08T13:58:55;10.60;79.10
24560;DHT22;12727;49.934;8.656;2024-03-08T14:01:22;10.60;79.60
24560;DHT22;12727;49.934;8.656;2024-03-08T14:03:48;11.00;81.20
24560;DHT22;12727;49.934;8.656;2024-03-08T14:06:14;11.00;80.10
24560;DHT22;12727;49.934;8.656;2024-03-08T14:08:39;11.00;78.30
24560;DHT22;12727;49.934;8.656;2024-03-08T14:11:05;10.80;77.70
24560;DHT22;12727;49.934;8.656;2024-03-08T14:13:44;10.60;78.50
24560;DHT22;12727;49.934;8.656;2024-03-08T14:16:11;10.70;80.00
24560;DHT22;12727;49.934;8.656;2024-03-08T14:18:37;10.80;79.20
24560;DHT22;12727;49.934;8.656;2024-03-08T14:21:03;10.80;78.80
24560;DHT22;12727;49.934;8.656;2024-03-08T14:23:29;10.90;78.30
24560;DHT22;12727;49.934;8.656;2024-03-08T14:25:55;10.80;78.80
24560;DHT22;12727;49.934;8.656;2024-03-08T14:28:21;10.90;78.60
24560;DHT22;12727;49.934;8.656;2024-03-08T14:30:48;10.80;78.60
24560;DHT22;12727;49.934;8.656;2024-03-08T14:33:14;10.90;78.70
24560;DHT22;12727;49.934;8.656;2024-03-08T14:35:40;11.00;77.70
24560;DHT22;12727;49.934;8.656;2024-03-08T14:38:06;10.80;77.20
24560;DHT22;12727;49.934;8.656;2024-03-08T14:40:34;10.80;77.80
24560;DHT22;12727;49.934;8.656;2024-03-08T14:42:59;10.80;77.80
24560;DHT22;12727;49.934;8.656;2024-03-08T14:45:26;10.80;77.90
24560;DHT22;12727;49.934;8.656;2024-03-08T14:47:52;10.90;77.90
24560;DHT22;12727;49.934;8.656;2024-03-08T14:50:21;10.90;77.50
24560;DHT22;12727;49.934;8.656;2024-03-08T14:52:48;10.80;78.00
24560;DHT22;12727;49.934;8.656;2024-03-08T14:55:22;10.90;78.10
24560;DHT22;12727;49.934;8.656;2024-03-08T14:57:51;10.90;77.90
24560;DHT22;12727;49.934;8.656;2024-03-08T15:00:18;10.80;77.80
24560;DHT22;12727;49.934;8.656;2024-03-08T15:02:56;10.80;77.90
24560;DHT22;12727;49.934;8.656;2024-03-08T15:05:24;10.80;77.80
24560;DHT22;12727;49.934;8.656;2024-03-08T15:07:55;10.90;78.00
24560;DHT22;12727;49.934;8.656;2024-03-08T15:10:21;10.90;77.60
24560;DHT22;12727;49.934;8.656;2024-03-08T15:12:50;11.00;77.70
24560;DHT22;12727;49.934;8.656;2024-03-08T15:15:18;11.00;77.80
24560;DHT22;12727;49.934;8.656;2024-03-08T15:17:44;10.90;77.50
24560;DHT22;12727;49.934;8.656;2024-03-08T15:20:12;10.90;78.30
24560;DHT22;12727;49.934;8.656;2024-03-08T15:22:54;11.00;78.10
24560;DHT22;12727;49.934;8.656;2024-03-08T15:25:21;11.10;77.40
24560;DHT22;12727;49.934;8.656;2024-03-08T15:27:51;11.10;76.90
24560;DHT22;12727;49.934;8.656;2024-03-08T15:30:17;11.00;76.60
24560;DHT22;12727;49.934;8.656;2024-03-08T15:32:48;11.10;77.90
24560;DHT22;12727;49.934;8.656;2024-03-08T15:35:14;11.10;77.00
24560;DHT22;12727;49.934;8.656;2024-03-08T15:37:45;11.10;76.90
24560;DHT22;12727;49.934;8.656;2024-03-08T15:40:14;11.20;76.90
24560;DHT22;12727;49.934;8.656;2024-03-08T15:45:17;11.10;77.10
24560;DHT22;12727;49.934;8.656;2024-03-08T15:47:43;11.30;77.20
24560;DHT22;12727;49.934;8.656;2024-03-08T15:50:10;11.30;76.10
24560;DHT22;12727;49.934;8.656;2024-03-08T15:52:43;11.20;75.50